Time;durP1;ratioP1;P1;durP2;ratioP2;P2;SDS_P1;SDS_P2;PMS_P1;PMS_P2;Temp;Humidity;BMP_temperature;BMP_pressure;BME280_temperature;BME280_humidity;BME280_pressure;Samples;Min_cycle;Max_cycle;Signal;HPM_P1;HPM_P2
2023/07/16 00:00:40;;;;;;;2.13;1.83;;;22.00;87.00;;;24.76;56.84;100708.25;5032044;28;20305;-57
2023/07/16 00:03:08;;;;;;;3.77;2.27;;;22.10;87.80;;;24.80;56.63;100712.06;5032445;28;20190;-57
2023/07/16 00:05:38;;;;;;;4.23;2.40;;;22.10;86.50;;;24.81;56.28;100719.06;5035887;28;20218;-58
2023/07/16 00:08:05;;;;;;;3.43;2.07;;;22.10;86.30;;;24.79;56.50;100730.09;5043295;28;20190;-57
2023/07/16 00:10:35;;;;;;;3.80;2.07;;;22.10;86.60;;;24.86;56.65;100721.78;5056501;28;20217;-58
2023/07/16 00:13:02;;;;;;;2.73;2.00;;;22.20;86.50;;;24.93;56.75;100716.94;5056926;28;20265;-57
2023/07/16 00:15:29;;;;;;;4.10;2.27;;;22.20;86.70;;;25.00;56.22;100717.47;5056351;28;20237;-57
2023/07/16 00:17:57;;;;;;;3.10;2.80;;;22.30;86.50;;;25.05;56.16;100706.69;5056777;28;20565;-57
2023/07/16 00:20:24;;;;;;;3.77;2.20;;;22.30;86.50;;;25.04;55.61;100691.59;5053192;28;20221;-59
2023/07/16 00:22:52;;;;;;;3.60;2.77;;;22.30;85.90;;;25.02;55.86;100693.75;5036994;28;20203;-59
2023/07/16 00:25:19;;;;;;;3.83;2.53;;;22.30;85.60;;;24.97;55.78;100691.06;5048656;28;20194;-60
2023/07/16 00:27:47;;;;;;;3.50;2.47;;;22.30;85.00;;;24.87;55.58;100715.28;5056529;28;20278;-59
2023/07/16 00:30:14;;;;;;;10.40;7.33;;;22.30;84.90;;;24.73;55.84;100719.56;5055805;28;20291;-58
2023/07/16 00:32:41;;;;;;;5.47;2.77;;;22.30;84.90;;;24.71;56.18;100724.41;5056167;28;20194;-60
2023/07/16 00:35:09;;;;;;;3.27;2.80;;;22.20;85.50;;;24.76;56.41;100732.50;5055585;28;20626;-59
2023/07/16 00:37:36;;;;;;;5.33;2.90;;;22.20;85.70;;;24.74;56.50;100734.66;5055345;28;20189;-57
2023/07/16 00:40:05;;;;;;;4.47;2.50;;;22.20;85.60;;;24.69;55.93;100729.25;5039272;28;20742;-58
2023/07/16 00:42:32;;;;;;;3.90;2.40;;;22.10;85.70;;;24.63;56.46;100711.47;5036328;28;20707;-59
2023/07/16 00:45:00;;;;;;;2.83;2.30;;;22.10;85.60;;;24.62;56.86;100712.56;5054680;28;20289;-58
2023/07/16 00:47:27;;;;;;;3.97;2.73;;;22.10;86.00;;;24.54;56.90;100713.91;5054458;28;20201;-58
2023/07/16 00:49:55;;;;;;;4.93;3.20;;;22.00;86.30;;;24.45;56.84;100720.88;5037932;28;20276;-59
2023/07/16 00:52:22;;;;;;;6.23;4.00;;;22.00;86.40;;;24.38;56.88;100719.50;5035716;28;20626;-58
2023/07/16 00:54:50;;;;;;;2.60;2.40;;;22.00;86.60;;;24.33;56.87;100719.50;5034323;28;20222;-58
2023/07/16 00:57:17;;;;;;;4.13;2.50;;;21.90;86.60;;;24.28;57.41;100720.31;5054095;28;20276;-59
2023/07/16 00:59:44;;;;;;;5.77;2.90;;;21.80;86.70;;;24.23;57.62;100726.47;5054735;28;20217;-59
2023/07/16 01:02:12;;;;;;;4.07;2.23;;;21.80;86.90;;;24.21;57.76;100747.47;5055439;28;20688;-58
2023/07/16 01:04:39;;;;;;;2.93;2.37;;;21.70;87.40;;;24.14;57.87;100771.13;5055498;28;20200;-59
2023/07/16 01:07:11;;;;;;;3.73;2.47;;;21.70;87.70;;;24.07;58.52;100773.25;5055437;28;20190;-58
2023/07/16 01:09:42;;;;;;;3.27;2.43;;;21.60;88.30;;;24.03;58.63;100766.72;5055209;28;20217;-59
2023/07/16 01:12:12;;;;;;;3.33;2.40;;;21.60;88.40;;;24.01;58.45;100763.47;5053792;28;20225;-58
2023/07/16 01:14:40;;;;;;;8.17;2.73;;;21.60;88.50;;;23.96;59.08;100755.38;5054823;28;20554;-59
2023/07/16 01:17:07;;;;;;;5.10;3.60;;;21.60;88.90;;;23.93;58.93;100755.94;5047515;28;20214;-56
2023/07/16 01:19:36;;;;;;;4.97;3.40;;;21.50;88.90;;;23.92;58.94;100754.28;5034650;28;20241;-57
2023/07/16 01:22:36;;;;;;;4.00;2.90;;;21.50;89.30;;;23.77;59.77;100762.28;5035399;28;20225;-58
2023/07/16 01:25:36;;;;;;;3.77;2.60;;;21.40;89.30;;;23.78;59.21;100766.59;5034817;28;20182;-59
2023/07/16 01:28:34;;;;;;;3.23;2.60;;;21.40;89.00;;;23.75;59.53;100759.03;5034976;28;20562;-61
2023/07/16 01:31:03;;;;;;;6.17;3.67;;;21.40;89.30;;;23.79;59.38;100776.28;5034882;28;20218;-58
2023/07/16 01:33:32;;;;;;;5.37;3.83;;;21.40;89.40;;;23.75;59.37;100764.41;5034813;28;20194;-58
2023/07/16 01:36:00;;;;;;;3.13;1.90;;;21.30;89.40;;;23.72;59.04;100764.97;5034700;28;20718;-59
2023/07/16 01:38:27;;;;;;;4.63;2.73;;;21.30;89.10;;;23.68;59.48;100758.47;5034534;28;20199;-59
2023/07/16 01:40:54;;;;;;;3.13;2.27;;;21.30;89.40;;;23.66;59.35;100767.84;5052713;28;20232;-58
2023/07/16 01:43:21;;;;;;;4.63;2.80;;;21.20;89.30;;;23.62;59.53;100777.53;5053754;28;20598;-56
2023/07/16 01:45:48;;;;;;;4.70;3.60;;;21.20;89.70;;;23.62;59.33;100770.28;5044925;28;20198;-59
2023/07/16 01:48:30;;;;;;;4.73;3.03;;;21.20;89.50;;;23.61;59.42;100774.00;5034852;28;20558;-64
2023/07/16 01:50:57;;;;;;;11.17;8.53;;;21.10;89.70;;;23.61;59.50;100774.00;5034973;28;20297;-57
2023/07/16 01:53:25;;;;;;;3.53;2.60;;;21.10;89.60;;;23.62;59.95;100770.28;5034880;28;20222;-58
2023/07/16 01:55:52;;;;;;;8.63;5.93;;;21.10;89.90;;;23.63;59.55;100761.13;5033477;28;20261;-59
2023/07/16 01:58:19;;;;;;;10.20;6.27;;;21.20;90.00;;;23.62;59.50;100759.53;5034644;28;20274;-58
2023/07/16 02:00:48;;;;;;;25.50;17.53;;;21.10;89.70;;;23.62;59.49;100753.31;5034157;28;20706;-58
2023/07/16 02:03:15;;;;;;;20.33;14.73;;;21.10;89.70;;;23.62;59.54;100758.69;5051618;28;20198;-58
2023/07/16 02:05:43;;;;;;;51.97;34.87;;;21.10;90.00;;;23.60;59.28;100745.53;5054805;28;20584;-56
2023/07/16 02:08:10;;;;;;;36.47;26.80;;;21.10;89.80;;;23.60;59.47;100748.22;5054562;28;20658;-58
2023/07/16 02:10:37;;;;;;;7.67;4.67;;;21.10;89.70;;;23.62;59.48;100746.09;5053897;28;20297;-58
2023/07/16 02:13:04;;;;;;;11.20;6.93;;;21.10;90.00;;;23.64;59.46;100732.38;5054097;28;20724;-58
2023/07/16 02:15:31;;;;;;;7.17;5.23;;;21.10;89.70;;;23.67;59.30;100731.84;5052566;28;20604;-58
2023/07/16 02:17:58;;;;;;;10.30;5.80;;;21.10;89.80;;;23.68;59.04;100731.59;5053224;28;20640;-56
2023/07/16 02:20:25;;;;;;;5.27;3.17;;;21.10;89.70;;;23.69;58.77;100738.59;5053656;28;20209;-59
2023/07/16 02:22:54;;;;;;;5.43;2.40;;;21.10;89.50;;;23.69;58.84;100743.16;5053816;28;20293;-58
2023/07/16 02:25:21;;;;;;;5.30;3.13;;;21.10;90.00;;;23.68;58.78;100747.72;5053839;28;20220;-56
2023/07/16 02:27:48;;;;;;;4.03;2.53;;;21.10;89.50;;;23.68;58.93;100747.72;5053802;28;20204;-59
2023/07/16 02:30:15;;;;;;;4.30;3.40;;;21.10;89.40;;;23.66;58.79;100746.34;5054384;28;20399;-58
2023/07/16 02:32:43;;;;;;;5.73;2.90;;;21.10;89.50;;;23.66;58.70;100755.22;5052217;28;20235;-58
2023/07/16 02:35:10;;;;;;;5.77;2.80;;;21.10;89.60;;;23.69;58.83;100760.09;5034147;28;20187;-58
2023/07/16 02:37:37;;;;;;;4.43;2.50;;;21.10;89.70;;;23.67;58.58;100758.72;5033749;28;20626;-60
2023/07/16 02:40:08;;;;;;;3.13;2.27;;;21.10;89.50;;;23.64;58.94;100756.56;5044245;28;20229;-58
2023/07/16 02:42:35;;;;;;;5.73;2.63;;;21.10;89.70;;;23.65;59.10;100759.00;5053498;28;20175;-55
2023/07/16 02:45:02;;;;;;;5.87;2.80;;;21.10;89.80;;;23.64;59.10;100748.50;5043100;28;20248;-58
2023/07/16 02:47:30;;;;;;;3.40;2.37;;;21.10;89.90;;;23.59;59.55;100754.66;5048300;28;20194;-58
2023/07/16 02:49:57;;;;;;;6.00;2.67;;;21.10;90.00;;;23.54;59.91;100760.00;5033270;28;20210;-57
2023/07/16 02:52:24;;;;;;;3.50;2.30;;;21.10;90.10;;;23.55;59.81;100756.25;5033676;28;20197;-57
2023/07/16 02:54:51;;;;;;;7.33;3.13;;;21.10;90.20;;;23.51;59.83;100768.56;5033942;28;20675;-59
2023/07/16 02:57:22;;;;;;;3.80;2.53;;;21.10;90.30;;;23.51;59.64;100768.56;5033614;28;20296;-59
2023/07/16 02:59:49;;;;;;;6.47;2.90;;;21.00;90.10;;;23.47;59.95;100767.47;5033164;28;20210;-58
2023/07/16 03:02:16;;;;;;;6.67;3.20;;;21.00;90.20;;;23.40;60.11;100773.06;5042880;28;20196;-58
2023/07/16 03:04:43;;;;;;;6.20;3.13;;;21.00;90.30;;;23.38;60.03;100775.22;5053447;28;20202;-58
2023/07/16 03:07:10;;;;;;;3.37;2.80;;;20.90;90.30;;;23.40;60.11;100774.94;5053683;28;20705;-56
2023/07/16 03:09:37;;;;;;;7.33;3.50;;;20.90;90.40;;;23.41;60.21;100779.28;5053160;28;20224;-57
2023/07/16 03:12:06;;;;;;;6.00;3.20;;;20.90;90.50;;;23.41;60.21;100781.97;5053766;28;20218;-57
2023/07/16 03:14:35;;;;;;;4.27;2.80;;;20.90;90.60;;;23.40;60.31;100783.81;5053278;28;20659;-58
2023/07/16 03:17:03;;;;;;;6.27;3.53;;;20.90;90.60;;;23.40;60.49;100785.69;5047121;28;20241;-56
2023/07/16 03:19:30;;;;;;;6.47;3.60;;;20.90;90.70;;;23.38;60.53;100790.53;5053271;28;20264;-60
2023/07/16 03:21:57;;;;;;;6.47;3.50;;;20.90;90.70;;;23.36;60.55;100787.28;5053272;28;20201;-58
2023/07/16 03:24:24;;;;;;;5.03;2.87;;;20.80;90.70;;;23.30;60.79;100805.19;5053025;28;20189;-56
2023/07/16 03:26:51;;;;;;;5.27;3.10;;;20.80;90.70;;;23.30;61.02;100805.19;5053524;28;20611;-58
2023/07/16 03:29:30;;;;;;;5.40;3.20;;;20.80;90.90;;;23.27;61.02;100803.03;5053186;28;20217;-56
2023/07/16 03:31:59;;;;;;;7.27;3.10;;;20.80;90.90;;;23.25;60.88;100802.47;5052757;28;20727;-59
2023/07/16 03:34:26;;;;;;;5.43;3.20;;;20.80;91.00;;;23.18;61.26;100803.75;5053051;28;20231;-59
2023/07/16 03:36:53;;;;;;;6.93;3.20;;;20.70;91.00;;;23.12;61.44;100807.47;5052884;28;20249;-58
2023/07/16 03:39:20;;;;;;;5.93;2.87;;;20.70;91.00;;;23.07;61.59;100810.09;5054157;28;20233;-58
2023/07/16 03:41:47;;;;;;;7.90;3.67;;;20.70;91.10;;;23.01;61.98;100805.75;5057216;28;20277;-57
2023/07/16 03:44:14;;;;;;;7.10;3.30;;;20.60;91.10;;;22.97;62.11;100812.69;5053686;28;20202;-60
2023/07/16 03:46:41;;;;;;;4.80;3.20;;;20.60;91.20;;;22.95;62.14;100822.88;5037225;28;20245;-55
2023/07/16 03:49:09;;;;;;;6.10;3.10;;;20.60;91.30;;;22.98;62.16;100819.69;5036636;28;20289;-57
2023/07/16 03:51:36;;;;;;;6.20;2.90;;;20.60;91.40;;;23.06;61.85;100822.72;5037000;28;20190;-59
2023/07/16 03:54:03;;;;;;;4.90;3.13;;;20.60;91.30;;;23.09;61.58;100821.41;5036910;28;20191;-54
2023/07/16 03:56:30;;;;;;;7.33;3.50;;;20.60;91.40;;;23.09;61.79;100829.47;5036683;28;20221;-57
2023/07/16 03:58:57;;;;;;;4.10;3.33;;;20.60;91.40;;;23.09;61.77;100837.50;5042918;28;20236;-58
2023/07/16 04:01:24;;;;;;;5.33;3.73;;;20.60;91.40;;;23.15;62.10;100844.56;5056618;28;20276;-58
2023/07/16 04:03:51;;;;;;;4.10;2.73;;;20.60;91.40;;;23.19;61.51;100843.81;5056916;28;20713;-55
2023/07/16 04:06:20;;;;;;;6.57;2.63;;;20.60;91.40;;;23.24;61.29;100846.53;5056692;28;20598;-61
2023/07/16 04:08:47;;;;;;;6.27;3.20;;;20.70;91.30;;;23.26;61.03;100841.72;5071362;28;20225;-56
2023/07/16 04:11:14;;;;;;;6.10;3.10;;;20.70;91.20;;;23.24;61.23;100837.66;5056615;28;20190;-58
2023/07/16 04:13:41;;;;;;;5.00;3.20;;;20.70;91.10;;;23.19;61.13;100834.94;5046388;28;20194;-55
2023/07/16 04:16:08;;;;;;;6.23;3.60;;;20.70;91.00;;;23.18;61.06;100831.44;5049059;28;20212;-56
2023/07/16 04:18:35;;;;;;;7.07;3.20;;;20.70;91.00;;;23.19;60.74;100824.19;5054880;28;20201;-55
2023/07/16 04:21:02;;;;;;;5.40;2.80;;;20.70;90.90;;;23.17;60.64;100832.50;5056461;28;20224;-57
2023/07/16 04:23:31;;;;;;;6.07;3.00;;;20.70;90.80;;;23.14;60.72;100837.56;5056793;28;20213;-54
2023/07/16 04:25:58;;;;;;;4.40;2.77;;;20.70;90.80;;;23.09;60.87;100841.00;5056429;28;20669;-57
2023/07/16 04:28:25;;;;;;;7.27;2.80;;;20.70;90.80;;;23.08;60.87;100843.97;5051338;28;20226;-59
2023/07/16 04:30:52;;;;;;;4.23;3.07;;;20.60;90.70;;;23.08;60.73;100843.97;5036422;28;20261;-58
2023/07/16 04:33:19;;;;;;;4.83;3.10;;;20.60;90.60;;;23.07;60.57;100845.03;5036348;28;20218;-58
2023/07/16 04:35:46;;;;;;;5.90;2.63;;;20.60;90.60;;;23.05;60.29;100857.91;5036190;28;20191;-56
2023/07/16 04:38:13;;;;;;;8.23;2.83;;;20.60;90.50;;;23.01;60.33;100854.09;5035974;28;20633;-56
2023/07/16 04:40:43;;;;;;;5.60;3.23;;;20.60;90.40;;;23.00;60.35;100852.47;5035844;28;20225;-56
2023/07/16 04:43:10;;;;;;;5.07;2.73;;;20.60;90.50;;;22.97;60.43;100858.34;5052035;28;20247;-55
2023/07/16 04:45:39;;;;;;;6.23;2.87;;;20.50;90.40;;;22.94;60.41;100864.22;5042401;28;20301;-55
2023/07/16 04:48:06;;;;;;;4.03;2.83;;;20.50;90.40;;;22.91;60.53;100860.19;5036183;28;20598;-56
2023/07/16 04:50:33;;;;;;;5.40;2.80;;;20.50;90.40;;;22.98;60.61;100868.03;5034244;28;20301;-58
2023/07/16 04:53:00;;;;;;;5.90;3.07;;;20.50;90.50;;;23.02;60.43;100871.81;5035823;28;20198;-58
2023/07/16 04:55:27;;;;;;;3.83;2.57;;;20.50;90.40;;;23.05;60.21;100865.94;5035971;28;20225;-58
2023/07/16 04:57:56;;;;;;;4.20;2.60;;;20.60;90.80;;;23.05;60.12;100871.31;5055673;28;20296;-58
2023/07/16 05:00:24;;;;;;;6.20;2.90;;;20.60;90.30;;;23.01;60.04;100873.69;5055222;28;20296;-58
2023/07/16 05:02:51;;;;;;;7.70;2.70;;;20.60;90.30;;;23.04;60.13;100880.44;5050923;28;20198;-57
2023/07/16 05:05:18;;;;;;;7.80;3.50;;;20.60;90.20;;;23.05;59.91;100877.50;5035704;28;20206;-57
2023/07/16 05:07:45;;;;;;;6.77;2.80;;;20.60;90.20;;;22.97;60.07;100882.50;5035664;28;20187;-58
2023/07/16 05:10:12;;;;;;;4.00;2.73;;;20.60;90.20;;;22.97;60.02;100879.81;5039162;28;20224;-58
2023/07/16 05:12:39;;;;;;;4.57;3.00;;;20.60;90.20;;;22.99;59.92;100877.72;5055405;28;20278;-57
2023/07/16 05:15:09;;;;;;;5.23;3.10;;;20.60;90.10;;;22.98;60.07;100887.63;5055614;28;20268;-55
2023/07/16 05:17:36;;;;;;;7.70;2.90;;;20.60;90.20;;;22.97;59.99;100886.00;5054957;28;20523;-55
2023/07/16 05:20:05;;;;;;;3.63;2.33;;;20.60;90.10;;;22.95;60.00;100887.31;5055081;28;20214;-58
2023/07/16 05:22:33;;;;;;;6.80;2.87;;;20.60;90.10;;;22.94;59.91;100896.47;5055352;28;20276;-55
2023/07/16 05:25:00;;;;;;;4.97;2.67;;;20.60;90.00;;;22.97;59.83;100895.94;5054458;28;20202;-57
2023/07/16 05:27:28;;;;;;;6.60;2.70;;;20.60;90.00;;;23.07;59.54;100896.03;5055212;28;20182;-57
2023/07/16 05:29:55;;;;;;;5.03;3.20;;;20.70;90.00;;;23.05;58.85;100903.53;5055294;28;20217;-57
2023/07/16 05:32:23;;;;;;;3.83;3.00;;;20.70;88.90;;;22.94;58.66;100899.13;5055333;28;20268;-57
2023/07/16 05:34:50;;;;;;;5.83;3.00;;;20.70;88.10;;;22.94;58.45;100901.81;5055188;28;20186;-55
2023/07/16 05:37:17;;;;;;;6.10;2.80;;;20.70;87.80;;;22.94;58.18;100896.47;5054548;28;20237;-58
2023/07/16 05:39:44;;;;;;;5.60;3.17;;;20.70;87.50;;;23.04;58.17;100907.28;5054085;28;20296;-57
2023/07/16 05:42:11;;;;;;;6.40;3.03;;;20.80;87.70;;;23.11;57.75;100906.03;5055023;28;20685;-59
2023/07/16 05:44:38;;;;;;;5.23;2.90;;;20.80;87.10;;;23.26;57.36;100891.94;5053718;28;20277;-55
2023/07/16 05:47:06;;;;;;;6.40;2.57;;;20.90;87.10;;;23.33;56.94;100892.53;5053859;28;20272;-58
2023/07/16 05:49:34;;;;;;;10.67;3.30;;;20.90;86.30;;;23.37;56.67;100901.75;5054515;28;20252;-57
2023/07/16 05:52:01;;;;;;;4.63;2.90;;;20.90;85.90;;;23.42;56.23;100899.91;5054683;28;20193;-54
2023/07/16 05:54:28;;;;;;;5.97;3.23;;;21.00;85.70;;;23.53;56.02;100911.59;5038531;28;20278;-58
2023/07/16 05:56:55;;;;;;;7.57;3.50;;;21.10;85.50;;;23.63;55.77;100906.28;5033370;28;20309;-56
2023/07/16 05:59:22;;;;;;;3.70;3.17;;;21.10;85.20;;;23.70;55.36;100906.09;5049230;28;20585;-63
2023/07/16 06:01:49;;;;;;;6.33;3.00;;;21.20;84.60;;;23.80;55.05;100917.72;5054333;28;20228;-58
2023/07/16 06:04:16;;;;;;;6.07;2.70;;;21.20;84.30;;;23.93;54.98;100906.53;5054920;28;20198;-61
2023/07/16 06:06:44;;;;;;;7.83;3.00;;;21.30;84.40;;;23.95;54.46;100906.25;5070057;28;20893;-55
2023/07/16 06:09:11;;;;;;;6.20;2.90;;;21.40;84.00;;;24.01;53.85;100905.25;5034802;28;20760;-57
2023/07/16 06:11:38;;;;;;;5.53;3.17;;;21.40;83.30;;;23.95;53.69;100909.78;5034528;28;20209;-58
2023/07/16 06:14:05;;;;;;;4.33;2.77;;;21.40;82.70;;;23.89;54.17;100905.41;5052475;28;20658;-57
2023/07/16 06:16:32;;;;;;;4.73;3.13;;;21.50;82.60;;;23.95;54.05;100909.78;5054041;28;20190;-57
2023/07/16 06:18:59;;;;;;;5.40;3.10;;;21.50;82.40;;;23.95;53.79;100904.41;5053860;28;20260;-57
2023/07/16 06:21:26;;;;;;;3.40;2.87;;;21.50;82.10;;;24.00;53.68;100907.13;5053668;28;20194;-54
2023/07/16 06:23:55;;;;;;;6.73;2.90;;;21.50;81.80;;;23.91;53.43;100903.28;5069412;28;20190;-58
2023/07/16 06:26:22;;;;;;;6.33;2.60;;;21.50;81.30;;;23.94;53.56;100913.53;5053876;28;20556;-58
2023/07/16 06:28:49;;;;;;;6.10;3.13;;;21.60;81.20;;;23.97;53.76;100896.88;5053649;28;20273;-58
2023/07/16 06:31:17;;;;;;;8.73;3.60;;;21.60;81.30;;;23.98;53.28;100903.88;5054235;28;20225;-56
2023/07/16 06:33:46;;;;;;;6.33;2.93;;;21.60;80.80;;;24.10;52.55;100907.19;5053956;28;20670;-59
2023/07/16 06:36:14;;;;;;;5.40;2.27;;;21.70;81.00;;;24.21;52.57;100908.91;5047572;28;20277;-58
2023/07/16 06:38:42;;;;;;;5.97;2.70;;;21.70;80.60;;;24.16;52.45;100908.88;5033611;28;20218;-58
2023/07/16 06:41:10;;;;;;;3.80;2.30;;;21.70;80.30;;;24.30;52.43;100909.22;5032664;28;20198;-57
2023/07/16 06:43:37;;;;;;;5.77;3.10;;;21.80;80.60;;;24.38;51.96;100921.38;5043340;28;20190;-58
2023/07/16 06:46:04;;;;;;;6.53;2.40;;;21.90;80.30;;;24.25;52.42;100924.53;5036844;28;20206;-59
2023/07/16 06:48:31;;;;;;;6.80;2.20;;;21.90;80.10;;;24.27;52.64;100912.41;5033496;28;20214;-61
2023/07/16 06:50:58;;;;;;;4.60;2.30;;;21.90;80.30;;;24.37;52.37;100931.31;5033951;28;20210;-58
2023/07/16 06:53:25;;;;;;;4.80;2.57;;;22.00;80.40;;;24.42;52.58;100930.53;5033772;28;20198;-55
2023/07/16 06:55:52;;;;;;;5.03;2.87;;;22.00;80.60;;;24.54;52.57;100933.81;5050588;28;20597;-57
2023/07/16 06:58:31;;;;;;;5.63;2.90;;;22.10;81.20;;;24.52;52.88;100944.03;5053516;28;20627;-56
2023/07/16 07:00:58;;;;;;;3.93;2.13;;;22.10;80.50;;;24.62;52.67;100947.63;5053371;28;20233;-59
2023/07/16 07:03:25;;;;;;;4.23;2.90;;;22.20;80.80;;;24.70;52.33;100944.41;5053787;28;20285;-57
2023/07/16 07:05:52;;;;;;;4.80;3.17;;;22.20;80.50;;;24.60;52.66;100941.69;5038387;28;20199;-58
2023/07/16 07:08:19;;;;;;;9.33;3.37;;;22.20;80.80;;;24.75;52.50;100952.50;5033401;28;20267;-57
2023/07/16 07:10:48;;;;;;;4.27;3.20;;;22.30;81.10;;;24.82;53.00;100953.13;5033316;28;20257;-58
2023/07/16 07:13:15;;;;;;;6.27;3.43;;;22.30;81.10;;;24.93;52.49;100942.38;5032088;28;20222;-59
2023/07/16 07:15:44;;;;;;;4.90;4.00;;;22.40;80.70;;;24.96;52.73;100953.44;5042179;28;20224;-59
2023/07/16 07:18:11;;;;;;;5.43;4.13;;;22.50;80.80;;;24.94;52.60;100947.50;5052897;28;20596;-59
2023/07/16 07:20:39;;;;;;;6.40;4.37;;;22.50;80.60;;;24.99;52.02;100955.59;5052540;28;20267;-60
2023/07/16 07:23:07;;;;;;;5.03;4.53;;;22.60;80.40;;;25.11;51.66;100949.97;5053391;28;20587;-59
2023/07/16 07:25:34;;;;;;;4.77;4.37;;;22.60;80.20;;;25.16;51.38;100956.19;5053268;28;20227;-59
2023/07/16 07:28:01;;;;;;;8.07;4.60;;;22.60;79.80;;;25.25;51.30;100957.28;5053470;28;20265;-57
2023/07/16 07:30:28;;;;;;;4.23;3.80;;;22.60;79.70;;;25.35;50.90;100954.63;5053430;28;20304;-59
2023/07/16 07:32:56;;;;;;;6.90;4.90;;;22.70;78.60;;;25.38;50.19;100958.69;5052520;28;20214;-59
2023/07/16 07:35:24;;;;;;;6.07;4.53;;;22.70;77.70;;;25.30;48.96;100959.19;5053332;28;20186;-59
2023/07/16 07:37:51;;;;;;;7.57;4.80;;;22.70;76.00;;;25.36;48.66;100953.56;5052953;28;20241;-58
2023/07/16 07:40:19;;;;;;;6.50;4.37;;;22.80;74.90;;;25.33;47.67;100964.88;5052817;28;20217;-60
2023/07/16 07:42:46;;;;;;;5.97;4.07;;;22.80;73.30;;;25.52;48.28;100960.63;5050429;28;20663;-58
2023/07/16 07:45:13;;;;;;;5.47;4.20;;;22.90;74.20;;;25.77;47.44;100959.03;5042854;28;20623;-58
2023/07/16 07:47:41;;;;;;;5.77;4.23;;;23.00;73.60;;;25.88;45.47;100960.66;5038896;28;20185;-59
2023/07/16 07:50:10;;;;;;;7.97;4.87;;;23.10;71.10;;;25.90;45.91;100974.66;5052009;28;20214;-60
2023/07/16 07:52:37;;;;;;;4.73;3.70;;;23.30;71.30;;;25.99;45.32;100960.38;5033252;28;20190;-58
2023/07/16 07:55:05;;;;;;;7.10;4.20;;;23.30;70.30;;;26.08;44.90;100968.72;5033079;28;20282;-59
2023/07/16 07:57:32;;;;;;;7.97;3.80;;;23.30;69.50;;;26.08;44.03;100960.63;5032885;28;20578;-61
2023/07/16 07:59:59;;;;;;;7.47;3.80;;;23.40;69.10;;;26.21;44.54;100968.22;5032687;28;20253;-57
2023/07/16 08:02:27;;;;;;;5.80;4.27;;;23.40;69.10;;;26.25;43.60;100971.97;5043049;28;20225;-59
2023/07/16 08:04:55;;;;;;;4.53;3.23;;;23.50;68.70;;;26.24;43.63;100964.16;5052568;28;20499;-59
2023/07/16 08:07:25;;;;;;;5.43;3.43;;;23.60;68.40;;;26.09;43.27;100962.25;5052299;28;20244;-63
2023/07/16 08:09:52;;;;;;;7.97;3.87;;;23.50;67.00;;;26.12;43.29;100967.16;5052275;28;20539;-58
2023/07/16 08:12:19;;;;;;;5.50;4.20;;;23.60;66.50;;;26.10;42.38;100969.28;5053177;28;20190;-56
2023/07/16 08:14:48;;;;;;;5.17;3.73;;;23.60;65.50;;;26.25;41.98;100977.38;5052690;28;20190;-58
2023/07/16 08:17:15;;;;;;;4.93;3.93;;;23.60;65.20;;;26.55;41.97;100985.44;5052139;28;20228;-58
2023/07/16 08:19:42;;;;;;;4.73;3.73;;;23.70;65.30;;;26.72;41.37;100988.59;5052941;28;20309;-58
2023/07/16 08:22:09;;;;;;;5.20;3.50;;;23.90;64.00;;;26.79;40.35;100993.78;5052720;28;20194;-59
2023/07/16 08:24:37;;;;;;;4.30;3.70;;;23.90;63.30;;;27.03;40.59;101018.28;5052634;28;20670;-57
2023/07/16 08:27:05;;;;;;;3.73;3.40;;;24.10;63.00;;;27.59;39.05;101003.41;5056187;28;20218;-59
2023/07/16 08:29:32;;;;;;;3.57;3.23;;;24.30;61.70;;;27.98;37.36;101006.88;5055533;28;20224;-59
2023/07/16 08:31:59;;;;;;;4.90;3.43;;;24.40;59.40;;;28.55;36.51;101005.31;5056016;28;20269;-59
2023/07/16 08:34:26;;;;;;;5.37;3.70;;;24.80;59.30;;;29.50;35.37;101000.66;5054261;28;20233;-56
2023/07/16 08:36:53;;;;;;;5.23;3.67;;;25.20;58.30;;;30.45;33.03;101006.44;5055712;28;20554;-58
2023/07/16 08:39:20;;;;;;;4.50;3.50;;;25.70;56.50;;;31.30;32.79;100994.94;5055546;28;20560;-59
2023/07/16 08:41:52;;;;;;;4.90;3.53;;;26.30;56.00;;;32.24;31.62;101008.50;5055948;28;20201;-56
2023/07/16 08:44:20;;;;;;;4.63;3.17;;;26.90;54.80;;;31.94;31.08;101010.88;5052746;28;20601;-55
2023/07/16 08:46:47;;;;;;;5.10;3.67;;;27.30;52.40;;;32.25;30.28;101013.66;5039636;28;20194;-59
2023/07/16 08:49:18;;;;;;;6.20;3.37;;;27.50;51.70;;;32.63;29.83;101003.13;5052186;28;20267;-57
2023/07/16 08:51:48;;;;;;;9.10;4.37;;;27.80;50.90;;;31.69;30.43;101019.66;5055342;28;20240;-61
2023/07/16 08:54:17;;;;;;;6.20;3.93;;;27.90;50.20;;;30.74;31.60;101020.56;5055426;28;20219;-58
2023/07/16 08:56:45;;;;;;;6.97;5.10;;;27.70;49.80;;;30.28;32.61;101021.69;5055523;28;20754;-59
2023/07/16 08:59:15;;;;;;;4.73;3.67;;;27.40;50.70;;;30.31;33.10;101031.97;5055037;28;20318;-58
2023/07/16 09:01:43;;;;;;;6.17;4.30;;;27.30;51.80;;;30.25;32.58;101024.97;5055811;28;20226;-58
2023/07/16 09:04:10;;;;;;;5.70;3.80;;;27.00;51.20;;;29.81;32.92;101044.47;5055631;28;20198;-58
2023/07/16 09:06:37;;;;;;;4.77;4.07;;;26.80;51.30;;;29.40;34.05;101034.16;5046306;28;20273;-58
2023/07/16 09:09:04;;;;;;;6.97;3.60;;;26.70;52.00;;;29.09;34.46;101038.34;5035135;28;20671;-56
2023/07/16 09:11:31;;;;;;;6.17;3.93;;;26.50;52.00;;;29.28;34.53;101036.50;5035484;28;20222;-58
2023/07/16 09:14:01;;;;;;;6.83;4.00;;;26.30;52.50;;;29.58;34.37;101039.88;5035288;28;20612;-58
2023/07/16 09:16:33;;;;;;;5.20;3.70;;;26.30;52.80;;;30.69;32.40;101034.25;5050902;28;20750;-58
2023/07/16 09:19:07;;;;;;;4.93;3.50;;;26.50;53.20;;;31.60;30.75;101056.91;5054806;28;20279;-59
2023/07/16 09:21:34;;;;;;;6.10;3.70;;;26.90;52.10;;;32.10;29.57;101052.19;5055136;28;20562;-54
2023/07/16 09:24:07;;;;;;;7.47;3.87;;;27.20;50.00;;;32.37;28.67;101045.78;5054577;28;20697;-58
2023/07/16 09:26:37;;;;;;;5.73;3.70;;;27.60;48.00;;;32.02;28.41;101045.56;5054729;28;20586;-54
2023/07/16 09:29:07;;;;;;;5.80;4.00;;;27.70;46.70;;;31.80;28.65;101056.44;5054943;28;20289;-55
2023/07/16 09:31:35;;;;;;;10.07;4.40;;;27.80;46.40;;;32.15;28.70;101053.97;5055045;28;20193;-57
2023/07/16 09:34:02;;;;;;;4.60;3.90;;;27.90;46.30;;;32.24;28.99;101063.00;5054951;28;20285;-56
2023/07/16 09:36:29;;;;;;;6.30;4.07;;;28.10;47.00;;;31.79;29.28;101065.72;5054215;28;20247;-56
2023/07/16 09:38:59;;;;;;;5.57;3.50;;;28.00;45.40;;;32.23;27.96;101061.44;5054381;28;20308;-57
2023/07/16 09:41:28;;;;;;;5.17;3.97;;;28.10;45.50;;;31.97;28.81;101059.31;5052821;28;20757;-58
2023/07/16 09:43:56;;;;;;;5.03;3.93;;;28.20;45.20;;;31.29;29.79;101067.63;5053747;28;20251;-56
2023/07/16 09:46:23;;;;;;;6.13;3.80;;;28.10;44.80;;;30.52;30.67;101063.94;5053724;28;20280;-55
2023/07/16 09:48:52;;;;;;;5.17;3.93;;;27.80;45.20;;;29.75;31.21;101084.41;5054278;28;20218;-59
2023/07/16 09:51:20;;;;;;;4.20;3.47;;;27.30;45.80;;;29.16;32.13;101075.94;5054833;28;20206;-59
2023/07/16 09:53:52;;;;;;;7.80;3.70;;;27.00;46.40;;;29.09;32.67;101073.59;5054640;28;20247;-61
2023/07/16 09:56:20;;;;;;;4.83;3.37;;;26.70;47.50;;;29.77;32.51;101065.13;5052443;28;20201;-59
2023/07/16 09:58:47;;;;;;;4.60;3.57;;;26.60;48.60;;;30.11;31.91;101077.38;5034463;28;20683;-58
2023/07/16 10:01:15;;;;;;;3.97;3.50;;;26.60;48.60;;;31.27;30.70;101071.75;5033154;28;20191;-58
2023/07/16 10:03:49;;;;;;;5.70;3.70;;;26.90;49.40;;;32.73;28.85;101073.78;5034675;28;20194;-58
2023/07/16 10:06:18;;;;;;;6.10;3.73;;;27.30;48.90;;;33.19;27.30;101074.09;5034481;28;20185;-58
2023/07/16 10:08:50;;;;;;;9.23;3.50;;;27.70;45.90;;;32.64;27.80;101083.84;5033826;28;20266;-59
2023/07/16 10:11:18;;;;;;;7.03;3.77;;;28.10;45.70;;;32.44;27.84;101071.50;5034540;28;20277;-59
2023/07/16 10:13:50;;;;;;;5.20;3.90;;;28.10;44.60;;;32.30;28.35;101080.88;5041235;28;20268;-59
2023/07/16 10:16:22;;;;;;;5.87;3.47;;;28.30;44.90;;;32.09;28.37;101075.91;5053820;28;20255;-59